createdAt,value
2023-05-01T00:04:13.525Z,1001.62
2023-05-01T00:09:13.279Z,1001.51
2023-05-01T00:14:13.215Z,1001.44
2023-05-01T00:19:13.180Z,1001.35
2023-05-01T00:24:13.120Z,1001.26
2023-05-01T00:29:13.140Z,1001.21
2023-05-01T00:34:13.110Z,1001.15
2023-05-01T00:39:12.999Z,1001.09
2023-05-01T00:44:12.905Z,1001.04
2023-05-01T00:49:12.815Z,1001.02
2023-05-01T00:54:12.767Z,1000.92
2023-05-01T00:59:12.727Z,1000.87
2023-05-01T01:04:13.730Z,1000.81
2023-05-01T01:09:12.725Z,1000.74
2023-05-01T01:14:12.666Z,1000.72
2023-05-01T01:19:12.581Z,1000.69
2023-05-01T01:24:12.553Z,1000.59
2023-05-01T01:29:12.448Z,1000.61
2023-05-01T01:34:12.332Z,1000.56
2023-05-01T01:39:12.299Z,1000.51
2023-05-01T01:44:12.362Z,1000.49
2023-05-01T01:49:12.314Z,1000.42
2023-05-01T01:54:12.237Z,1000.36
2023-05-01T01:59:13.074Z,1000.33
2023-05-01T02:04:12.213Z,1000.28
2023-05-01T02:09:11.946Z,1000.25
2023-05-01T02:14:11.913Z,1000.17
2023-05-01T02:19:11.828Z,1000.10
2023-05-01T02:24:11.808Z,999.97
2023-05-01T02:29:11.753Z,999.94
2023-05-01T02:34:11.785Z,999.92
2023-05-01T02:39:11.738Z,999.86
2023-05-01T02:44:11.671Z,999.85
2023-05-01T02:49:11.525Z,999.74
2023-05-01T02:54:11.447Z,999.68
2023-05-01T02:59:11.429Z,999.65
2023-05-01T03:04:11.470Z,999.59
2023-05-01T03:09:11.324Z,999.50
2023-05-01T03:14:11.384Z,999.47
2023-05-01T03:19:12.253Z,999.47
2023-05-01T03:24:11.267Z,999.41
2023-05-01T03:29:11.170Z,999.35
2023-05-01T03:34:19.937Z,999.26
2023-05-01T03:39:10.980Z,999.22
2023-05-01T03:44:10.919Z,999.16
2023-05-01T03:49:10.863Z,999.14
2023-05-01T03:54:10.905Z,999.12
2023-05-01T03:59:10.852Z,999.10
2023-05-01T04:04:10.981Z,999.15
2023-05-01T04:09:10.684Z,999.10
2023-05-01T04:14:10.588Z,999.02
2023-05-01T04:19:10.548Z,999.02
2023-05-01T04:24:10.482Z,999.00
2023-05-01T04:29:10.557Z,998.95
2023-05-01T04:34:10.460Z,998.96
2023-05-01T04:39:10.325Z,998.95
2023-05-01T04:44:10.222Z,998.91
2023-05-01T04:49:10.269Z,998.95
2023-05-01T04:54:10.126Z,998.93
2023-05-01T04:59:10.083Z,998.95
2023-05-01T05:04:10.102Z,998.92
2023-05-01T05:09:10.014Z,998.90
2023-05-01T05:14:10.047Z,998.88
2023-05-01T05:19:09.938Z,998.91
2023-05-01T05:24:09.947Z,998.89
2023-05-01T05:29:09.762Z,998.87
2023-05-01T05:34:09.714Z,998.88
2023-05-01T05:39:09.631Z,998.92
2023-05-01T05:44:09.648Z,998.96
2023-05-01T05:49:09.587Z,998.87
2023-05-01T05:54:09.492Z,998.78
2023-05-01T05:59:09.448Z,998.75
2023-05-01T06:04:09.467Z,998.73
2023-05-01T06:09:09.307Z,998.80
2023-05-01T06:14:09.232Z,998.75
2023-05-01T06:19:09.198Z,998.70
2023-05-01T06:24:09.182Z,998.72
2023-05-01T06:29:09.133Z,998.64
2023-05-01T06:34:09.089Z,998.57
2023-05-01T06:39:09.021Z,998.57
2023-05-01T06:44:09.028Z,998.61
2023-05-01T06:49:08.998Z,998.56
2023-05-01T06:54:08.810Z,998.55
2023-05-01T06:59:08.772Z,998.54
2023-05-01T07:04:08.688Z,998.50
2023-05-01T07:09:08.646Z,998.52
2023-05-01T07:14:08.630Z,998.50
2023-05-01T07:19:08.539Z,998.49
2023-05-01T07:24:08.486Z,998.45
2023-05-01T07:29:11.814Z,998.47
2023-05-01T07:34:15.182Z,998.47
2023-05-01T07:39:08.435Z,998.40
2023-05-01T07:44:08.359Z,998.41
2023-05-01T07:49:08.245Z,998.31
2023-05-01T07:54:08.131Z,998.35
2023-05-01T07:59:08.080Z,998.28
2023-05-01T08:04:08.130Z,998.19
2023-05-01T08:09:07.968Z,998.13
2023-05-01T08:14:07.903Z,998.18
2023-05-01T08:19:07.949Z,998.18
2023-05-01T08:24:07.888Z,998.23
2023-05-01T08:29:08.865Z,998.20
2023-05-01T08:34:07.760Z,998.14
2023-05-01T08:39:07.714Z,998.18
2023-05-01T08:44:07.635Z,998.25
2023-05-01T08:49:07.527Z,998.15
2023-05-01T08:54:07.473Z,998.01
2023-05-01T08:59:07.450Z,998.00
2023-05-01T09:04:07.427Z,997.94
2023-05-01T09:09:07.322Z,997.88
2023-05-01T09:14:07.317Z,997.88
2023-05-01T09:19:07.255Z,997.77
2023-05-01T09:24:07.302Z,997.79
2023-05-01T09:29:07.112Z,997.78
2023-05-01T09:34:15.924Z,997.78
2023-05-01T09:40:24.917Z,997.73
2023-05-01T09:45:17.464Z,997.69
2023-05-01T09:50:17.317Z,997.68
2023-05-01T09:55:17.394Z,997.69
2023-05-01T10:00:18.278Z,997.70
2023-05-01T10:05:17.118Z,997.59
2023-05-01T10:10:17.073Z,997.66
2023-05-01T10:15:25.595Z,997.58
2023-05-01T10:20:18.013Z,997.49
2023-05-01T10:25:17.084Z,997.52
2023-05-01T10:30:17.075Z,997.50
2023-05-01T10:35:16.855Z,997.45
2023-05-01T10:40:16.816Z,997.47
2023-05-01T10:45:16.710Z,997.27
2023-05-01T10:50:16.696Z,997.23
2023-05-01T10:55:16.573Z,997.12
2023-05-01T11:00:16.603Z,997.06
2023-05-01T11:05:19.981Z,996.97
2023-05-01T11:10:17.490Z,997.09
2023-05-01T11:15:16.421Z,997.04
2023-05-01T11:20:16.328Z,996.96
2023-05-01T11:25:16.388Z,996.96
2023-05-01T11:30:16.347Z,997.10
2023-05-01T11:35:16.321Z,997.05
2023-05-01T11:40:16.103Z,996.78
2023-05-01T11:45:16.100Z,996.57
2023-05-01T11:50:16.357Z,996.58
2023-05-01T11:55:15.999Z,996.58
2023-05-01T12:00:15.933Z,996.66
2023-05-01T12:05:15.932Z,996.62
2023-05-01T12:10:15.966Z,996.64
2023-05-01T12:15:15.913Z,996.68
2023-05-01T12:20:15.745Z,996.72
2023-05-01T12:25:15.709Z,996.66
2023-05-01T12:30:15.610Z,996.61
2023-05-01T12:35:15.614Z,996.63
2023-05-01T12:40:15.599Z,996.69
2023-05-01T12:45:15.611Z,996.68
2023-05-01T12:50:15.467Z,996.71
2023-05-01T12:55:15.368Z,996.73
2023-05-01T13:00:15.345Z,996.67
2023-05-01T13:05:15.252Z,996.64
2023-05-01T13:10:15.267Z,996.62
2023-05-01T13:15:15.117Z,996.75
2023-05-01T13:20:15.074Z,996.73
2023-05-01T13:25:15.050Z,996.71
2023-05-01T13:30:14.966Z,996.70
2023-05-01T13:35:15.033Z,996.71
2023-05-01T13:40:18.367Z,996.63
2023-05-01T13:45:14.915Z,996.61
2023-05-01T13:50:14.840Z,996.56
2023-05-01T13:55:14.835Z,996.59
2023-05-01T14:00:14.686Z,996.67
2023-05-01T14:05:14.643Z,996.66
2023-05-01T14:10:14.555Z,996.67
2023-05-01T14:15:14.485Z,996.69
2023-05-01T14:20:14.428Z,996.64
2023-05-01T14:25:14.342Z,996.70
2023-05-01T14:30:14.316Z,996.72
2023-05-01T14:35:14.252Z,996.74
2023-05-01T14:40:14.197Z,996.77
2023-05-01T14:45:14.254Z,996.77
2023-05-01T14:50:14.091Z,996.92
2023-05-01T14:55:14.033Z,996.97
2023-05-01T15:00:14.998Z,997.06
2023-05-01T15:05:13.912Z,997.10
2023-05-01T15:10:13.994Z,997.06
2023-05-01T15:15:14.942Z,997.21
2023-05-01T15:20:13.857Z,997.32
2023-05-01T15:25:13.732Z,997.48
2023-05-01T15:30:13.712Z,997.62
2023-05-01T15:35:13.651Z,997.68
2023-05-01T15:40:13.625Z,997.72
2023-05-01T15:45:23.550Z,997.76
2023-05-01T15:50:13.560Z,997.92
2023-05-01T15:55:13.440Z,997.95
2023-05-01T16:00:13.379Z,998.06
2023-05-01T16:05:13.344Z,998.18
2023-05-01T16:10:13.222Z,998.22
2023-05-01T16:15:13.204Z,998.24
2023-05-01T16:20:13.170Z,998.39
2023-05-01T16:25:13.115Z,998.38
2023-05-01T16:30:13.014Z,998.49
2023-05-01T16:35:12.927Z,998.46
2023-05-01T16:40:12.896Z,998.44
2023-05-01T16:45:12.855Z,998.47
2023-05-01T16:50:12.815Z,998.53
2023-05-01T16:55:12.730Z,998.56
2023-05-01T17:00:12.769Z,998.53
2023-05-01T17:05:12.718Z,998.50
2023-05-01T17:10:12.639Z,998.53
2023-05-01T17:15:12.562Z,998.48
2023-05-01T17:20:12.510Z,998.56
2023-05-01T17:25:12.430Z,998.56
2023-05-01T17:30:12.378Z,998.61
2023-05-01T17:35:12.294Z,998.69
2023-05-01T17:40:12.252Z,998.81
2023-05-01T17:45:12.162Z,998.86
2023-05-01T17:50:12.165Z,998.93
2023-05-01T17:55:12.077Z,998.95
2023-05-01T18:00:12.018Z,998.96
2023-05-01T18:05:11.961Z,998.95
2023-05-01T18:10:11.930Z,999.04
2023-05-01T18:15:13.754Z,999.05
2023-05-01T18:20:11.809Z,999.08
2023-05-01T18:25:11.884Z,999.11
2023-05-01T18:30:11.774Z,999.18
2023-05-01T18:35:11.699Z,999.23
2023-05-01T18:40:11.693Z,999.36
2023-05-01T18:45:11.502Z,999.42
2023-05-01T18:50:11.533Z,999.48
2023-05-01T18:55:11.558Z,999.60
2023-05-01T19:00:11.398Z,999.65
2023-05-01T19:05:11.356Z,999.68
2023-05-01T19:10:11.286Z,999.75
2023-05-01T19:15:11.199Z,999.77
2023-05-01T19:20:11.126Z,999.84
2023-05-01T19:25:11.063Z,999.96
2023-05-01T19:30:11.039Z,1000.04
2023-05-01T19:35:11.051Z,1000.11
2023-05-01T19:40:10.956Z,1000.20
2023-05-01T19:45:10.868Z,1000.24
2023-05-01T19:50:10.825Z,1000.28
2023-05-01T19:55:10.877Z,1000.32
2023-05-01T20:00:11.702Z,1000.37
2023-05-01T20:05:10.751Z,1000.40
2023-05-01T20:10:10.643Z,1000.45
2023-05-01T20:15:10.498Z,1000.43
2023-05-01T20:20:10.483Z,1000.47
2023-05-01T20:25:10.408Z,1000.59
2023-05-01T20:30:10.385Z,1000.55
2023-05-01T20:35:10.301Z,1000.54
2023-05-01T20:40:10.365Z,1000.66
2023-05-01T20:45:10.193Z,1000.70
2023-05-01T20:50:10.137Z,1000.71
2023-05-01T20:55:10.436Z,1000.81
2023-05-01T21:00:10.124Z,1000.84
2023-05-01T21:05:10.059Z,1000.90
2023-05-01T21:10:10.056Z,1000.90
2023-05-01T21:15:09.950Z,1000.97
2023-05-01T21:20:09.840Z,1001.01
2023-05-01T21:25:09.945Z,1001.05
2023-05-01T21:30:09.703Z,1001.13
2023-05-01T21:35:09.799Z,1001.25
2023-05-01T21:40:09.762Z,1001.29
2023-05-01T21:45:09.522Z,1001.34
2023-05-01T21:50:19.341Z,1001.39
2023-05-01T21:55:09.400Z,1001.50
2023-05-01T22:00:09.542Z,1001.51
2023-05-01T22:05:09.478Z,1001.54
2023-05-01T22:10:09.391Z,1001.61
2023-05-01T22:15:09.329Z,1001.66
2023-05-01T22:20:09.207Z,1001.59
2023-05-01T22:25:09.064Z,1001.62
2023-05-01T22:30:09.019Z,1001.68
2023-05-01T22:35:09.053Z,1001.72
2023-05-01T22:40:08.899Z,1001.83
2023-05-01T22:45:08.886Z,1001.86
2023-05-01T22:50:08.824Z,1001.94
2023-05-01T22:55:08.865Z,1002.01
2023-05-01T23:00:08.814Z,1002.04
2023-05-01T23:05:08.733Z,1002.08
2023-05-01T23:10:08.668Z,1002.17
2023-05-01T23:15:08.526Z,1002.20
2023-05-01T23:20:08.562Z,1002.25
2023-05-01T23:25:08.441Z,1002.29
2023-05-01T23:30:08.343Z,1002.33
2023-05-01T23:35:08.273Z,1002.36
2023-05-01T23:40:08.271Z,1002.33
2023-05-01T23:45:08.241Z,1002.29
2023-05-01T23:50:08.164Z,1002.30
2023-05-01T23:55:08.119Z,1002.33
